createdAt,value
2024-03-19T04:46:28.000Z,30.41
2024-03-19T04:48:56.086Z,30.41
2024-03-19T04:51:29.201Z,30.47
2024-03-19T04:53:56.813Z,30.51
2024-03-19T04:56:25.777Z,30.52
2024-03-19T04:58:53.605Z,30.58
2024-03-19T05:01:21.155Z,30.60
2024-03-19T05:03:51.161Z,30.63
2024-03-19T05:06:18.821Z,30.64
2024-03-19T05:08:48.664Z,30.64
2024-03-19T05:11:16.264Z,30.61
2024-03-19T05:13:43.925Z,30.63
2024-03-19T05:16:12.852Z,30.62
2024-03-19T05:18:40.411Z,30.68
2024-03-19T05:21:08.120Z,30.66
2024-03-19T05:23:36.968Z,30.65
2024-03-19T05:26:08.149Z,30.71
2024-03-19T05:28:36.959Z,30.67
2024-03-19T05:31:22.450Z,30.68
2024-03-19T05:33:55.867Z,30.65
2024-03-19T05:36:27.019Z,30.70
2024-03-19T05:38:54.703Z,30.68
2024-03-19T05:41:24.497Z,30.65
2024-03-19T05:43:54.128Z,30.64
2024-03-19T05:46:25.638Z,30.61
2024-03-19T05:48:53.432Z,30.58
2024-03-19T05:51:23.651Z,30.61
2024-03-19T05:53:51.235Z,30.60
2024-03-19T05:56:19.116Z,30.58
2024-03-19T05:58:47.965Z,30.58
2024-03-19T06:01:15.582Z,30.54
2024-03-19T06:03:43.236Z,30.52
2024-03-19T06:06:11.507Z,30.55
2024-03-19T06:08:40.344Z,30.52
2024-03-19T06:11:10.198Z,30.51
2024-03-19T06:13:37.956Z,30.50
2024-03-19T06:16:06.349Z,30.48
2024-03-19T06:18:34.847Z,30.46
2024-03-19T06:21:02.464Z,30.43
2024-03-19T06:23:32.704Z,30.45
2024-03-19T06:26:00.244Z,30.46
2024-03-19T06:28:27.961Z,30.48
2024-03-19T06:30:57.349Z,30.59
2024-03-19T06:33:24.903Z,30.57
2024-03-19T06:35:54.933Z,30.55
2024-03-19T06:38:22.643Z,30.50
2024-03-19T06:40:50.423Z,30.50
2024-03-19T06:43:19.348Z,30.49
2024-03-19T06:45:48.142Z,30.48
2024-03-19T06:48:17.184Z,30.44
2024-03-19T06:50:45.228Z,30.43
2024-03-19T06:53:16.665Z,30.44
2024-03-19T06:55:44.361Z,30.40
2024-03-19T06:58:14.225Z,30.41
2024-03-19T07:00:41.884Z,30.39
2024-03-19T07:03:14.272Z,30.37
2024-03-19T07:05:48.204Z,30.37
2024-03-19T07:08:21.683Z,30.38
2024-03-19T07:10:51.709Z,30.35
2024-03-19T07:13:19.916Z,30.37
2024-03-19T07:15:53.767Z,30.35
2024-03-19T07:18:21.583Z,30.37
2024-03-19T07:20:52.719Z,30.37
2024-03-19T07:23:20.563Z,30.38
2024-03-19T07:25:49.493Z,30.36
2024-03-19T07:28:17.331Z,30.33
2024-03-19T07:30:47.330Z,30.39
2024-03-19T07:33:15.423Z,30.37
2024-03-19T07:35:46.364Z,30.28
2024-03-19T07:38:16.860Z,30.32
2024-03-19T07:40:54.002Z,30.31
2024-03-19T07:43:24.724Z,30.30
2024-03-19T07:45:58.050Z,30.30
2024-03-19T07:48:27.249Z,30.29
2024-03-19T07:50:57.577Z,30.29
2024-03-19T07:53:28.437Z,30.21
2024-03-19T07:55:56.448Z,30.18
2024-03-19T07:58:25.440Z,30.22
2024-03-19T08:00:53.237Z,30.18
2024-03-19T08:03:22.358Z,30.21
2024-03-19T08:06:02.369Z,30.22
2024-03-19T08:08:32.474Z,30.27
2024-03-19T08:11:02.908Z,30.23
2024-03-19T08:13:32.336Z,30.22
2024-03-19T08:16:00.731Z,30.22
2024-03-19T08:18:29.908Z,30.31
2024-03-19T08:20:57.634Z,30.29
2024-03-19T08:23:25.300Z,30.28
2024-03-19T08:25:55.495Z,30.30
2024-03-19T08:28:25.058Z,30.31
2024-03-19T08:30:54.058Z,30.29
2024-03-19T08:33:22.845Z,30.32
2024-03-19T08:35:56.960Z,30.33
2024-03-19T08:38:29.696Z,30.32
2024-03-19T08:40:58.327Z,30.28
2024-03-19T08:43:29.001Z,30.28
2024-03-19T08:45:59.902Z,30.21
2024-03-19T08:48:29.107Z,30.21
2024-03-19T08:50:58.648Z,30.19
2024-03-19T08:53:28.064Z,30.17
2024-03-19T08:55:57.260Z,30.16
2024-03-19T08:58:26.379Z,30.11
2024-03-19T09:00:54.156Z,30.17
2024-03-19T09:03:21.823Z,30.18
2024-03-19T09:05:58.001Z,30.10
2024-03-19T09:08:28.376Z,30.12
2024-03-19T09:10:56.666Z,30.14
2024-03-19T09:13:25.639Z,30.13
2024-03-19T09:15:53.675Z,30.14
2024-03-19T09:18:25.410Z,29.98
2024-03-19T09:20:57.951Z,30.12
2024-03-19T09:23:27.184Z,30.17
2024-03-19T09:26:07.787Z,30.15
2024-03-19T09:28:36.156Z,30.14
2024-03-19T09:31:05.857Z,30.07
2024-03-19T09:33:34.434Z,30.11
2024-03-19T09:36:03.581Z,30.15
2024-03-19T09:38:31.555Z,30.11
2024-03-19T09:41:04.359Z,30.02
2024-03-19T09:43:36.358Z,30.05
2024-03-19T09:46:11.566Z,30.05
2024-03-19T09:48:47.481Z,30.06
2024-03-19T09:51:23.309Z,30.03
2024-03-19T09:53:54.469Z,30.04
2024-03-19T09:56:25.841Z,30.00
2024-03-19T09:58:57.078Z,29.99
2024-03-19T10:01:26.439Z,29.98
2024-03-19T10:03:55.422Z,29.96
2024-03-19T10:06:24.456Z,29.86
2024-03-19T10:08:52.307Z,29.90
2024-03-19T10:11:24.671Z,29.95
2024-03-19T10:13:53.118Z,29.90
2024-03-19T10:16:23.127Z,29.91
2024-03-19T10:18:52.713Z,29.84
2024-03-19T10:21:24.126Z,29.84
2024-03-19T10:23:52.651Z,29.84
2024-03-19T10:26:23.019Z,29.81
2024-03-19T10:28:54.857Z,29.75
2024-03-19T10:31:24.611Z,29.75
2024-03-19T10:34:02.917Z,29.74
2024-03-19T10:36:35.808Z,29.70
2024-03-19T10:39:09.013Z,29.66
2024-03-19T10:41:38.116Z,29.61
2024-03-19T10:44:13.443Z,29.56
2024-03-19T10:46:43.493Z,29.52
2024-03-19T10:49:24.890Z,29.50
2024-03-19T10:52:09.998Z,29.42
2024-03-19T10:54:44.585Z,29.41
2024-03-19T10:57:18.999Z,29.39
2024-03-19T10:59:48.820Z,29.38
2024-03-19T11:02:21.280Z,29.32
2024-03-19T11:04:58.280Z,29.16
2024-03-19T11:07:28.447Z,29.22
2024-03-19T11:09:57.038Z,29.21
2024-03-19T11:12:25.963Z,29.03
2024-03-19T11:14:58.152Z,29.14
2024-03-19T11:17:30.494Z,29.13
2024-03-19T11:19:58.914Z,29.07
2024-03-19T11:22:27.927Z,29.02
2024-03-19T11:24:57.196Z,29.08
2024-03-19T11:27:34.470Z,29.03
2024-03-19T11:30:13.447Z,29.10
2024-03-19T11:32:42.598Z,29.09
2024-03-19T11:35:27.231Z,29.08
2024-03-19T11:37:55.546Z,29.04
2024-03-19T11:40:25.819Z,29.06
2024-03-19T11:42:55.101Z,29.04
2024-03-19T11:45:23.261Z,29.03
2024-03-19T11:47:53.312Z,29.03
2024-03-19T11:50:21.428Z,29.02
2024-03-19T11:52:49.808Z,29.03
2024-03-19T11:55:22.118Z,29.01
2024-03-19T11:57:52.249Z,29.07
2024-03-19T12:00:22.280Z,29.13
2024-03-19T12:02:51.278Z,29.09
2024-03-19T12:05:22.933Z,29.12
2024-03-19T12:07:52.934Z,29.11
2024-03-19T12:10:24.329Z,29.11
2024-03-19T12:12:53.705Z,29.09
2024-03-19T12:15:25.139Z,29.09
2024-03-19T12:17:54.967Z,29.11
2024-03-19T12:20:24.043Z,29.12
2024-03-19T12:22:54.031Z,29.17
2024-03-19T12:25:25.148Z,29.20
2024-03-19T12:27:52.963Z,29.22
2024-03-19T12:30:23.101Z,29.16
2024-03-19T12:33:12.006Z,29.24
2024-03-19T12:35:41.566Z,29.30
2024-03-19T12:38:12.812Z,29.33
2024-03-19T12:40:41.952Z,29.35
2024-03-19T12:43:19.573Z,29.35
2024-03-19T12:45:48.445Z,29.32
2024-03-19T12:48:17.005Z,29.36
2024-03-19T12:50:47.058Z,29.28
2024-03-19T12:53:15.569Z,29.33
2024-03-19T12:55:47.682Z,29.31
2024-03-19T12:58:15.511Z,29.32
2024-03-19T13:00:44.634Z,29.41
2024-03-19T13:03:12.313Z,29.42
2024-03-19T13:05:40.009Z,29.38
2024-03-19T13:08:09.253Z,29.37
2024-03-19T13:10:37.513Z,29.39
2024-03-19T13:13:07.850Z,29.39
2024-03-19T13:15:36.130Z,29.41
2024-03-19T13:18:06.491Z,29.43
2024-03-19T13:20:34.841Z,29.42
2024-03-19T13:23:08.563Z,29.41
2024-03-19T13:25:37.909Z,29.42
2024-03-19T13:28:08.620Z,29.29
2024-03-19T13:30:36.331Z,29.40
2024-03-19T13:33:06.650Z,29.43
2024-03-19T13:35:34.579Z,29.36
2024-03-19T13:38:04.590Z,29.42
2024-03-19T13:40:34.166Z,29.39
2024-03-19T13:43:03.360Z,29.28
2024-03-19T13:45:31.078Z,29.29
2024-03-19T13:48:00.708Z,29.30
2024-03-19T13:50:32.859Z,29.32
2024-03-19T13:53:04.059Z,29.29
2024-03-19T13:55:39.256Z,29.34
2024-03-19T13:58:15.585Z,29.33
2024-03-19T14:00:48.936Z,29.33
2024-03-19T14:03:23.935Z,29.32
2024-03-19T14:06:03.293Z,29.35
2024-03-19T14:08:36.597Z,29.36
2024-03-19T14:11:06.106Z,29.37
2024-03-19T14:13:35.210Z,29.34
2024-03-19T14:16:03.108Z,29.31
2024-03-19T14:18:31.080Z,29.10
2024-03-19T14:21:00.089Z,29.15
2024-03-19T14:23:27.965Z,29.19
2024-03-19T14:25:55.910Z,29.19
2024-03-19T14:28:25.062Z,29.18
2024-03-19T14:30:56.705Z,29.13
2024-03-19T14:33:26.350Z,29.12
2024-03-19T14:35:54.276Z,29.15
2024-03-19T14:38:25.298Z,29.20
2024-03-19T14:40:54.056Z,29.31
2024-03-19T14:43:23.977Z,29.32
2024-03-19T14:45:52.022Z,29.31
2024-03-19T14:48:22.707Z,29.32
2024-03-19T14:50:50.957Z,29.37
2024-03-19T14:53:22.469Z,29.41
2024-03-19T14:55:50.489Z,29.44
2024-03-19T14:58:20.800Z,29.46
2024-03-19T15:00:52.165Z,29.47
2024-03-19T15:03:28.303Z,29.44
2024-03-19T15:05:58.818Z,29.45
2024-03-19T15:08:28.853Z,29.48
2024-03-19T15:11:02.824Z,29.70
2024-03-19T15:13:32.093Z,29.43
2024-03-19T15:16:07.313Z,29.51
2024-03-19T15:18:39.208Z,29.48
2024-03-19T15:21:18.676Z,29.35
2024-03-19T15:24:00.861Z,29.35
2024-03-19T15:26:37.758Z,29.31
2024-03-19T15:29:10.557Z,29.26
2024-03-19T15:31:41.428Z,29.19
2024-03-19T15:34:10.506Z,29.07
2024-03-19T15:36:39.063Z,29.04
2024-03-19T15:39:09.312Z,28.92
2024-03-19T15:41:37.587Z,28.92
2024-03-19T15:44:07.646Z,28.87
2024-03-19T15:46:35.621Z,28.86
2024-03-19T15:49:05.805Z,28.85
2024-03-19T15:51:33.672Z,28.82
2024-03-19T15:54:02.277Z,28.93
2024-03-19T15:56:31.896Z,29.15
2024-03-19T15:59:02.006Z,29.32
2024-03-19T16:01:34.984Z,29.63
2024-03-19T16:04:08.390Z,30.06
2024-03-19T16:06:36.884Z,30.20
2024-03-19T16:09:10.976Z,30.34
2024-03-19T16:11:47.613Z,30.21
2024-03-19T16:14:18.719Z,30.41
2024-03-19T16:16:48.299Z,30.50
2024-03-19T16:19:17.072Z,30.63
2024-03-19T16:21:50.362Z,30.63
2024-03-19T16:24:19.013Z,30.70
2024-03-19T16:26:48.798Z,30.64
2024-03-19T16:29:17.061Z,30.58
2024-03-19T16:31:48.490Z,30.64
2024-03-19T16:34:22.188Z,30.75
2024-03-19T16:36:52.311Z,30.89
2024-03-19T16:39:21.270Z,31.04
2024-03-19T16:41:51.464Z,30.97
2024-03-19T16:44:20.101Z,31.04
2024-03-19T16:46:53.752Z,31.03
2024-03-19T16:49:28.598Z,30.99
2024-03-19T16:51:57.204Z,31.21
2024-03-19T16:54:26.883Z,31.28
2024-03-19T16:56:57.626Z,31.39
2024-03-19T16:59:28.220Z,31.35
2024-03-19T17:01:57.390Z,31.34
2024-03-19T17:04:28.786Z,31.25
2024-03-19T17:06:57.552Z,31.26
2024-03-19T17:09:27.814Z,31.56
2024-03-19T17:11:55.591Z,31.59
2024-03-19T17:14:25.826Z,31.74
2024-03-19T17:16:53.655Z,31.82
2024-03-19T17:19:21.550Z,31.81
2024-03-19T17:21:52.567Z,31.80
2024-03-19T17:24:21.397Z,32.05
2024-03-19T17:26:50.317Z,32.31
2024-03-19T17:29:18.938Z,32.69
2024-03-19T17:31:49.202Z,32.95
2024-03-19T17:34:19.749Z,32.99
2024-03-19T17:36:49.694Z,33.14
2024-03-19T17:39:18.112Z,33.21
2024-03-19T17:41:47.315Z,33.29
2024-03-19T17:44:15.673Z,33.45
2024-03-19T17:46:46.021Z,33.57
2024-03-19T17:49:17.835Z,33.73
2024-03-19T17:51:46.486Z,33.85
2024-03-19T17:54:15.101Z,33.62
2024-03-19T17:56:51.276Z,33.74
2024-03-19T17:59:21.422Z,33.73
2024-03-19T18:01:50.461Z,33.76
2024-03-19T18:04:19.800Z,33.92
2024-03-19T18:06:47.638Z,33.99
2024-03-19T18:09:18.822Z,33.90
2024-03-19T18:11:48.021Z,33.90
2024-03-19T18:14:17.120Z,33.84
2024-03-19T18:16:50.211Z,33.79
2024-03-19T18:19:27.725Z,33.65
2024-03-19T18:21:56.974Z,33.77
2024-03-19T18:24:28.523Z,33.88
2024-03-19T18:26:57.216Z,34.04
2024-03-19T18:29:26.656Z,34.09
2024-03-19T18:31:56.228Z,34.14
2024-03-19T18:34:29.691Z,34.12
2024-03-19T18:36:58.960Z,34.16
2024-03-19T18:39:28.625Z,34.07
2024-03-19T18:44:53.123Z,33.82
2024-03-19T18:47:20.988Z,33.77
2024-03-19T18:49:49.587Z,33.56
2024-03-19T18:52:19.103Z,33.47
2024-03-19T18:54:46.949Z,33.26
2024-03-19T18:57:18.789Z,33.28
2024-03-19T18:59:46.883Z,33.19
2024-03-19T19:02:16.098Z,33.09
2024-03-19T19:04:44.091Z,32.96
2024-03-19T19:07:11.837Z,32.95
2024-03-19T19:09:41.010Z,33.00
2024-03-19T19:12:09.390Z,32.94
2024-03-19T19:14:39.407Z,33.01
2024-03-19T19:17:08.003Z,33.25
2024-03-19T19:19:38.112Z,33.87
2024-03-19T19:22:06.514Z,34.43
2024-03-19T19:24:38.070Z,34.93
2024-03-19T19:27:06.321Z,35.27
2024-03-19T19:29:35.314Z,35.57
2024-03-19T19:32:03.284Z,35.87
2024-03-19T19:34:32.417Z,36.18
2024-03-19T19:37:02.524Z,36.37
2024-03-19T19:39:32.470Z,36.56
2024-03-19T19:42:02.687Z,36.66
2024-03-19T19:44:33.239Z,36.77
2024-03-19T19:47:04.360Z,36.92
2024-03-19T19:49:35.259Z,37.02
2024-03-19T19:52:04.822Z,37.08
2024-03-19T19:54:32.543Z,37.16
2024-03-19T19:57:01.129Z,37.15
2024-03-19T19:59:29.093Z,37.10
2024-03-19T20:01:59.309Z,37.27
2024-03-19T20:04:27.173Z,37.23
2024-03-19T20:06:57.079Z,37.33
2024-03-19T20:09:24.682Z,37.48
2024-03-19T20:11:52.310Z,37.67
2024-03-19T20:14:20.580Z,37.75
2024-03-19T20:16:48.656Z,37.59
2024-03-19T20:19:17.542Z,37.21
2024-03-19T20:21:46.948Z,36.94
2024-03-19T20:24:16.272Z,36.63
2024-03-19T20:26:45.338Z,36.28
2024-03-19T20:29:14.642Z,35.97
2024-03-19T20:31:43.842Z,35.69
2024-03-19T20:34:12.469Z,35.44
2024-03-19T20:36:42.640Z,35.26
2024-03-19T20:39:10.921Z,35.04
2024-03-19T20:41:42.415Z,34.83
2024-03-19T20:44:11.983Z,34.60
2024-03-19T20:46:41.792Z,34.41
2024-03-19T20:49:09.495Z,34.29
2024-03-19T20:51:39.370Z,34.14
2024-03-19T20:54:07.447Z,34.03
2024-03-19T20:56:37.884Z,33.88
2024-03-19T20:59:09.023Z,33.67
2024-03-19T21:01:38.121Z,33.48
2024-03-19T21:04:05.949Z,33.30
2024-03-19T21:06:33.549Z,33.15
2024-03-19T21:09:03.150Z,33.03
2024-03-19T21:11:31.030Z,32.95
2024-03-19T21:14:00.008Z,32.81
2024-03-19T21:16:29.772Z,32.65
2024-03-19T21:18:58.916Z,32.54
2024-03-19T21:21:26.791Z,32.46
2024-03-19T21:23:57.618Z,32.38
2024-03-19T21:26:25.385Z,32.27
2024-03-19T21:28:54.386Z,32.18
2024-03-19T21:31:23.779Z,32.08
2024-03-19T21:33:52.675Z,31.95
2024-03-19T21:36:21.457Z,31.87
2024-03-19T21:38:51.681Z,31.83
2024-03-19T21:41:19.347Z,31.74
2024-03-19T21:43:49.462Z,31.66
2024-03-19T21:46:17.127Z,31.60
2024-03-19T21:48:45.112Z,31.55
2024-03-19T21:51:14.045Z,31.47
2024-03-19T21:53:42.057Z,31.41
2024-03-19T21:56:09.719Z,31.35
2024-03-19T21:58:38.610Z,31.29
2024-03-19T22:01:07.808Z,31.27
2024-03-19T22:03:39.776Z,31.18
2024-03-19T22:06:07.538Z,31.17
2024-03-19T22:08:36.534Z,31.14
2024-03-19T22:11:04.703Z,31.07
2024-03-19T22:13:32.364Z,31.01
2024-03-19T22:16:01.359Z,30.94
2024-03-19T22:18:29.128Z,30.89
2024-03-19T22:20:56.901Z,30.84
2024-03-19T22:23:25.795Z,30.99
2024-03-19T22:25:53.546Z,30.98
2024-03-19T22:28:21.208Z,30.98
2024-03-19T22:30:50.203Z,30.96
2024-03-19T22:33:17.991Z,30.93
2024-03-19T22:35:45.737Z,30.86
2024-03-19T22:38:14.818Z,30.82
2024-03-19T22:40:43.106Z,30.78
2024-03-19T22:43:13.030Z,30.72
2024-03-19T22:45:43.852Z,30.69
2024-03-19T22:48:12.954Z,30.64
2024-03-19T22:50:44.401Z,30.59
2024-03-19T22:53:13.600Z,30.55
2024-03-19T22:55:41.265Z,30.64
2024-03-19T22:58:08.928Z,30.51
2024-03-19T23:00:39.764Z,30.44
2024-03-19T23:03:07.529Z,30.38
2024-03-19T23:05:36.522Z,30.31
2024-03-19T23:08:04.595Z,30.23
2024-03-19T23:10:34.505Z,30.18
2024-03-19T23:13:02.178Z,30.14
2024-03-19T23:15:29.940Z,30.05
2024-03-19T23:17:59.072Z,30.00
2024-03-19T23:20:27.003Z,29.96
2024-03-19T23:22:55.075Z,29.90
2024-03-19T23:25:24.176Z,29.86
2024-03-19T23:27:53.268Z,29.82
2024-03-19T23:30:23.632Z,29.78
2024-03-19T23:32:51.454Z,29.75
2024-03-19T23:35:20.756Z,29.77
2024-03-19T23:37:48.626Z,29.69
2024-03-19T23:40:20.381Z,29.66
2024-03-19T23:42:48.058Z,29.63
2024-03-19T23:45:17.336Z,29.56
2024-03-19T23:47:44.894Z,29.51
2024-03-19T23:50:13.386Z,29.45
2024-03-19T23:52:41.455Z,29.40
2024-03-19T23:55:09.943Z,29.38
2024-03-19T23:57:39.954Z,29.35
